Time;durP1;ratioP1;P1;durP2;ratioP2;P2;SDS_P1;SDS_P2;PMS_P1;PMS_P2;Temp;Humidity;BMP_temperature;BMP_pressure;BME280_temperature;BME280_humidity;BME280_pressure;Samples;Min_cycle;Max_cycle;Signal;HPM_P1;HPM_P2
2023/09/04 00:01:08;;;;;;;7.13;2.93;;;17.40;1.00;;;;;;5026145;28;20481;-71
2023/09/04 00:03:34;;;;;;;6.77;2.53;;;17.40;1.00;;;;;;5024288;28;20403;-71
2023/09/04 00:05:59;;;;;;;6.30;2.10;;;17.40;1.00;;;;;;5026580;28;20434;-71
2023/09/04 00:08:25;;;;;;;6.80;2.70;;;17.40;1.00;;;;;;5029428;28;20510;-71
2023/09/04 00:10:50;;;;;;;6.65;2.70;;;17.20;1.00;;;;;;5028098;28;20407;-71
2023/09/04 00:13:16;;;;;;;6.70;2.00;;;17.10;1.00;;;;;;5027673;28;20427;-71
2023/09/04 00:15:43;;;;;;;6.20;2.23;;;17.10;1.00;;;;;;5026244;28;20858;-71
2023/09/04 00:18:09;;;;;;;8.25;2.67;;;17.10;1.00;;;;;;5021680;28;20466;-72
2023/09/04 00:20:35;;;;;;;6.20;2.23;;;17.10;1.00;;;;;;5027378;28;20415;-72
2023/09/04 00:23:00;;;;;;;8.20;2.55;;;17.00;1.00;;;;;;5026192;28;20819;-72
2023/09/04 00:25:26;;;;;;;7.22;2.30;;;16.80;1.00;;;;;;5027243;28;20426;-71
2023/09/04 00:27:54;;;;;;;6.25;2.25;;;16.90;1.00;;;;;;5026612;28;20441;-71
2023/09/04 00:30:20;;;;;;;6.20;2.10;;;16.80;1.00;;;;;;5027466;28;20419;-71
2023/09/04 00:32:46;;;;;;;7.07;2.40;;;16.70;1.00;;;;;;5027381;28;20877;-71
2023/09/04 00:35:13;;;;;;;8.65;3.10;;;16.60;1.00;;;;;;5027286;28;20494;-71
2023/09/04 00:37:40;;;;;;;6.57;2.40;;;16.60;1.00;;;;;;5027299;28;20799;-71
2023/09/04 00:40:06;;;;;;;6.70;2.60;;;16.60;7.90;;;;;;5026562;28;20501;-71
2023/09/04 00:42:33;;;;;;;7.95;2.53;;;16.60;13.40;;;;;;5027094;28;20395;-71
2023/09/04 00:45:00;;;;;;;6.80;2.50;;;16.70;1.00;;;;;;5028077;28;20476;-71
2023/09/04 00:47:27;;;;;;;6.20;2.60;;;16.60;4.40;;;;;;5027739;28;20746;-71
2023/09/04 00:49:54;;;;;;;6.75;2.25;;;16.50;7.80;;;;;;5027642;28;20402;-71
2023/09/04 00:52:22;;;;;;;7.85;2.90;;;16.50;10.10;;;;;;5026293;28;20438;-71
2023/09/04 00:54:48;;;;;;;7.15;2.10;;;16.50;26.90;;;;;;5027486;28;20410;-71
2023/09/04 00:57:15;;;;;;;6.80;2.30;;;16.50;24.60;;;;;;5027110;28;20403;-71
2023/09/04 00:59:41;;;;;;;8.48;2.70;;;16.60;24.30;;;;;;5007665;28;20901;-71
2023/09/04 01:02:07;;;;;;;7.20;2.90;;;16.70;25.10;;;;;;5027269;28;20485;-72
2023/09/04 01:04:32;;;;;;;16.05;2.97;;;16.70;5.10;;;;;;5026746;28;20570;-71
2023/09/04 01:06:58;;;;;;;6.40;2.20;;;16.70;1.00;;;;;;5028000;28;20426;-71
2023/09/04 01:09:24;;;;;;;6.70;2.40;;;16.70;1.00;;;;;;5026547;28;20422;-71
2023/09/04 01:12:04;;;;;;;7.90;2.70;;;16.70;1.00;;;;;;5024182;28;20410;-71
2023/09/04 01:14:32;;;;;;;11.52;2.35;;;16.70;1.00;;;;;;5029872;28;20606;-71
2023/09/04 01:16:58;;;;;;;6.53;2.55;;;16.60;1.00;;;;;;5030433;28;20435;-71
2023/09/04 01:19:24;;;;;;;6.65;2.28;;;16.60;1.00;;;;;;5028530;28;20789;-71
2023/09/04 01:21:50;;;;;;;8.95;2.47;;;16.50;1.00;;;;;;5030904;28;20913;-71
2023/09/04 01:24:16;;;;;;;8.53;2.50;;;16.50;1.00;;;;;;5030982;28;20419;-71
2023/09/04 01:27:01;;;;;;;6.13;2.00;;;16.50;1.00;;;;;;5030570;28;20441;-71
2023/09/04 01:29:35;;;;;;;7.67;2.50;;;16.50;1.00;;;;;;5028990;28;20494;-71
2023/09/04 01:32:10;;;;;;;7.47;2.38;;;16.50;1.00;;;;;;5031444;28;20921;-71
2023/09/04 01:34:46;;;;;;;7.18;2.72;;;16.40;1.00;;;;;;5029452;28;20524;-71
2023/09/04 01:37:12;;;;;;;6.60;2.50;;;16.50;1.00;;;;;;5024498;28;20407;-71
2023/09/04 01:39:39;;;;;;;7.80;2.70;;;16.40;1.00;;;;;;5028591;28;20468;-71
2023/09/04 01:42:04;;;;;;;6.22;2.25;;;16.30;1.00;;;;;;5029468;28;20486;-71
2023/09/04 01:44:30;;;;;;;7.30;2.90;;;16.30;1.00;;;;;;5029943;28;20543;-71
2023/09/04 01:46:56;;;;;;;6.50;2.40;;;16.30;1.00;;;;;;5028870;28;20508;-71
2023/09/04 01:49:21;;;;;;;7.97;2.73;;;16.20;1.00;;;;;;5029686;28;21647;-71
2023/09/04 01:51:47;;;;;;;7.30;2.80;;;16.20;1.00;;;;;;5029704;28;20410;-71
2023/09/04 01:54:12;;;;;;;5.43;2.15;;;16.20;1.00;;;;;;5029636;28;20403;-71
2023/09/04 01:56:38;;;;;;;5.75;2.05;;;16.20;1.90;;;;;;5029497;28;20407;-71
2023/09/04 01:59:03;;;;;;;7.00;2.60;;;16.10;1.00;;;;;;5030266;28;20490;-71
2023/09/04 02:01:29;;;;;;;7.00;2.40;;;16.20;1.00;;;;;;5030030;28;20394;-70
2023/09/04 02:03:56;;;;;;;6.35;2.55;;;16.20;1.00;;;;;;5029487;28;20746;-71
2023/09/04 02:06:23;;;;;;;6.90;2.58;;;16.10;1.00;;;;;;5029846;28;20392;-71
2023/09/04 02:08:49;;;;;;;8.10;2.77;;;16.20;1.00;;;;;;5028961;28;20402;-71
2023/09/04 02:11:15;;;;;;;8.00;2.60;;;16.20;1.00;;;;;;5029515;28;20441;-71
2023/09/04 02:13:40;;;;;;;7.15;2.35;;;16.20;1.00;;;;;;5029584;28;20506;-71
2023/09/04 02:16:06;;;;;;;8.30;2.70;;;16.20;1.00;;;;;;5029396;28;20403;-71
2023/09/04 02:18:31;;;;;;;8.20;2.80;;;16.10;1.00;;;;;;5030060;28;20757;-71
2023/09/04 02:20:59;;;;;;;6.97;2.70;;;16.10;2.20;;;;;;5028762;28;20910;-71
2023/09/04 02:23:25;;;;;;;7.60;2.92;;;16.10;1.00;;;;;;5028806;28;20442;-71
2023/09/04 02:25:51;;;;;;;7.75;2.97;;;16.00;4.50;;;;;;5028354;28;20422;-71
2023/09/04 02:28:16;;;;;;;7.03;2.60;;;16.00;18.20;;;;;;5029261;28;20399;-71
2023/09/04 02:30:42;;;;;;;6.80;2.77;;;16.00;13.20;;;;;;5028606;28;20489;-71
2023/09/04 02:33:07;;;;;;;8.95;3.30;;;15.90;26.10;;;;;;5028469;28;20411;-71
2023/09/04 02:35:33;;;;;;;6.65;2.35;;;15.80;30.80;;;;;;5025720;28;20457;-71
2023/09/04 02:37:59;;;;;;;7.27;2.73;;;15.80;44.90;;;;;;5029071;28;20418;-71
2023/09/04 02:40:25;;;;;;;8.05;2.85;;;15.80;35.90;;;;;;5028829;28;20403;-71
2023/09/04 02:42:50;;;;;;;8.43;2.80;;;15.80;32.10;;;;;;5026028;28;20774;-71
2023/09/04 02:45:16;;;;;;;7.07;2.20;;;15.70;33.50;;;;;;5027786;28;20423;-71
2023/09/04 02:47:42;;;;;;;6.70;2.65;;;15.70;54.40;;;;;;5027964;28;20500;-71
2023/09/04 02:50:08;;;;;;;8.27;2.53;;;15.70;45.00;;;;;;5028016;28;20414;-71
2023/09/04 02:52:34;;;;;;;7.55;2.78;;;15.70;44.10;;;;;;5028842;28;20886;-71
2023/09/04 02:55:00;;;;;;;10.23;2.88;;;15.70;46.50;;;;;;5029063;28;20410;-71
2023/09/04 02:57:26;;;;;;;8.63;3.97;;;15.70;47.60;;;;;;5025672;28;20403;-72
2023/09/04 02:59:52;;;;;;;7.55;2.60;;;15.50;52.50;;;;;;5028775;28;20506;-71
2023/09/04 03:02:17;;;;;;;7.35;2.70;;;15.50;85.70;;;;;;5028598;28;20482;-72
2023/09/04 03:04:43;;;;;;;7.60;2.93;;;15.50;84.50;;;;;;5024206;28;20431;-72
2023/09/04 03:07:09;;;;;;;7.90;3.20;;;15.60;89.80;;;;;;5027784;28;20418;-72
2023/09/04 03:09:35;;;;;;;7.47;2.75;;;15.60;72.10;;;;;;5028554;28;20394;-72
2023/09/04 03:12:01;;;;;;;7.15;3.33;;;15.60;58.80;;;;;;5028083;28;20496;-72
2023/09/04 03:14:27;;;;;;;10.32;3.25;;;15.60;48.80;;;;;;5028682;28;20786;-72
2023/09/04 03:16:52;;;;;;;14.13;3.38;;;15.70;32.20;;;;;;5028036;28;20500;-72
2023/09/04 03:19:18;;;;;;;7.27;2.90;;;15.70;38.20;;;;;;5010270;28;20936;-72
2023/09/04 03:21:43;;;;;;;8.70;3.00;;;15.70;46.00;;;;;;5027737;28;20407;-72
2023/09/04 03:24:09;;;;;;;8.13;2.70;;;15.60;45.30;;;;;;5027971;28;20391;-72
2023/09/04 03:26:34;;;;;;;8.63;3.35;;;15.50;53.90;;;;;;5027683;28;20481;-72
2023/09/04 03:29:00;;;;;;;9.77;3.03;;;15.50;46.70;;;;;;5028647;28;20720;-72
2023/09/04 03:31:25;;;;;;;7.33;2.90;;;15.50;40.60;;;;;;5027013;28;20417;-72
2023/09/04 03:33:51;;;;;;;7.33;2.43;;;15.40;37.80;;;;;;5027079;28;20442;-72
2023/09/04 03:36:16;;;;;;;7.60;2.80;;;15.40;35.00;;;;;;5027075;28;20414;-72
2023/09/04 03:38:42;;;;;;;9.45;3.20;;;15.30;28.00;;;;;;5026729;28;20407;-72
2023/09/04 03:41:08;;;;;;;7.20;2.50;;;15.20;39.50;;;;;;5027364;28;20387;-72
2023/09/04 03:43:34;;;;;;;7.43;2.80;;;15.10;86.40;;;;;;5027356;28;20453;-72
2023/09/04 03:46:00;;;;;;;7.30;2.50;;;15.20;57.40;;;;;;5027434;28;20921;-72
2023/09/04 03:48:26;;;;;;;8.00;2.85;;;15.20;43.20;;;;;;5027239;28;20411;-72
2023/09/04 03:50:52;;;;;;;10.30;2.60;;;15.20;46.20;;;;;;5025010;28;20531;-73
2023/09/04 03:53:17;;;;;;;8.60;3.17;;;15.10;62.30;;;;;;5027965;28;20969;-72
2023/09/04 03:55:43;;;;;;;8.63;3.20;;;15.10;57.70;;;;;;5025890;28;20943;-71
2023/09/04 03:58:08;;;;;;;9.97;2.77;;;15.20;66.10;;;;;;5025360;28;20490;-71
2023/09/04 04:00:34;;;;;;;7.25;2.53;;;15.20;83.90;;;;;;5027899;28;20402;-71
2023/09/04 04:03:00;;;;;;;6.43;2.78;;;15.20;87.10;;;;;;5027201;28;20395;-72
2023/09/04 04:05:26;;;;;;;6.93;2.38;;;15.20;73.40;;;;;;5027335;28;20423;-72
2023/09/04 04:07:52;;;;;;;6.60;2.90;;;15.20;70.20;;;;;;5027539;28;20387;-72
2023/09/04 04:10:18;;;;;;;8.65;3.28;;;15.20;65.30;;;;;;5027072;28;20445;-72
2023/09/04 04:12:44;;;;;;;9.10;3.10;;;15.10;80.00;;;;;;5027119;28;20414;-72
2023/09/04 04:15:11;;;;;;;8.97;4.00;;;14.90;92.20;;;;;;5027662;28;20882;-72
2023/09/04 04:17:38;;;;;;;10.63;3.80;;;14.80;99.90;;;;;;5027014;28;20489;-72
2023/09/04 04:20:12;;;;;;;9.90;3.50;;;14.80;99.90;;;;;;5025508;28;20517;-72
2023/09/04 04:22:41;;;;;;;12.77;4.40;;;14.90;99.90;;;;;;5025225;28;20422;-71
2023/09/04 04:25:07;;;;;;;12.83;3.97;;;14.90;99.90;;;;;;5009172;28;20426;-72
2023/09/04 04:27:33;;;;;;;12.13;4.68;;;14.90;99.20;;;;;;5024158;28;20397;-72
2023/09/04 04:29:58;;;;;;;11.97;4.53;;;14.90;99.90;;;;;;5028301;28;20537;-71
2023/09/04 04:32:24;;;;;;;7.43;3.20;;;14.90;93.20;;;;;;5026791;28;20394;-71
2023/09/04 04:34:50;;;;;;;6.90;2.90;;;14.90;78.50;;;;;;5025552;28;20407;-72
2023/09/04 04:37:15;;;;;;;8.10;2.90;;;15.00;71.70;;;;;;5027159;28;20475;-72
2023/09/04 04:39:41;;;;;;;8.80;3.95;;;15.10;73.50;;;;;;5027048;28;20865;-71
2023/09/04 04:42:06;;;;;;;9.65;3.85;;;15.10;84.00;;;;;;5026582;28;20399;-71
2023/09/04 04:44:32;;;;;;;12.40;4.13;;;15.20;83.50;;;;;;5025465;28;20862;-71
2023/09/04 04:46:57;;;;;;;8.40;3.70;;;15.10;99.90;;;;;;5027189;28;20430;-77
2023/09/04 04:49:24;;;;;;;10.40;3.47;;;15.20;99.90;;;;;;5013029;28;20418;-77
2023/09/04 04:51:49;;;;;;;9.23;3.03;;;15.20;98.00;;;;;;5030962;28;20481;-77
2023/09/04 04:54:16;;;;;;;9.40;3.87;;;15.30;79.90;;;;;;5033000;28;20395;-77
2023/09/04 04:56:41;;;;;;;8.07;3.65;;;15.40;93.90;;;;;;5032231;28;20489;-77
2023/09/04 04:59:08;;;;;;;8.57;3.75;;;15.50;77.50;;;;;;5032399;28;20482;-77
2023/09/04 05:01:34;;;;;;;8.63;3.42;;;15.50;48.80;;;;;;5032657;28;20448;-77
2023/09/04 05:04:00;;;;;;;8.27;3.50;;;15.50;49.70;;;;;;5032063;28;20758;-77
2023/09/04 05:06:25;;;;;;;9.05;3.17;;;15.50;64.90;;;;;;5031865;28;20489;-77
2023/09/04 05:08:51;;;;;;;6.77;3.10;;;15.50;62.50;;;;;;5031973;28;20778;-76
2023/09/04 05:11:17;;;;;;;7.95;3.67;;;15.50;37.90;;;;;;5030017;28;20409;-77
2023/09/04 05:13:42;;;;;;;10.48;3.90;;;15.60;46.10;;;;;;5031832;28;20862;-77
2023/09/04 05:16:08;;;;;;;10.53;4.10;;;15.60;28.40;;;;;;5031578;28;20395;-77
2023/09/04 05:18:34;;;;;;;7.95;3.17;;;15.60;23.80;;;;;;5030004;28;20414;-77
2023/09/04 05:21:00;;;;;;;8.17;3.20;;;15.60;25.40;;;;;;5031302;28;20391;-77
2023/09/04 05:23:25;;;;;;;7.80;3.40;;;15.60;7.20;;;;;;5030790;28;20440;-77
2023/09/04 05:25:52;;;;;;;8.05;3.20;;;15.80;1.00;;;;;;5013468;28;20431;-77
2023/09/04 05:28:18;;;;;;;9.73;3.85;;;15.90;1.00;;;;;;5030743;28;20411;-77
2023/09/04 05:30:44;;;;;;;10.37;4.23;;;16.10;1.00;;;;;;5031466;28;20533;-77
2023/09/04 05:33:10;;;;;;;9.95;3.35;;;16.10;1.00;;;;;;5030944;28;20391;-75
2023/09/04 05:35:35;;;;;;;10.93;3.87;;;16.30;1.00;;;;;;5031355;28;20414;-75
2023/09/04 05:38:01;;;;;;;8.50;3.53;;;16.40;1.00;;;;;;5032115;28;20391;-75
2023/09/04 05:40:27;;;;;;;9.32;4.05;;;16.60;1.00;;;;;;5030713;28;20402;-75
2023/09/04 05:42:52;;;;;;;8.30;3.77;;;16.70;1.00;;;;;;5022150;28;20405;-75
2023/09/04 05:45:19;;;;;;;9.07;3.80;;;16.80;1.00;;;;;;5011110;28;20456;-74
2023/09/04 05:47:46;;;;;;;9.65;4.05;;;16.80;1.00;;;;;;5011329;28;20762;-76
2023/09/04 05:50:11;;;;;;;8.65;3.67;;;17.00;1.00;;;;;;5020049;28;20597;-75
2023/09/04 05:52:37;;;;;;;8.40;3.90;;;17.10;1.00;;;;;;5031974;28;20422;-75
2023/09/04 05:55:03;;;;;;;11.60;3.50;;;17.10;1.00;;;;;;5030428;28;20973;-75
2023/09/04 05:57:29;;;;;;;11.35;3.45;;;17.20;1.00;;;;;;5011396;28;20413;-75
2023/09/04 05:59:54;;;;;;;9.77;3.83;;;17.30;1.00;;;;;;5011388;28;20396;-75
2023/09/04 06:02:20;;;;;;;9.23;3.60;;;17.40;1.00;;;;;;5014403;28;20641;-75
2023/09/04 06:04:45;;;;;;;11.43;4.10;;;17.70;1.00;;;;;;5021169;28;20966;-75
2023/09/04 06:07:15;;;;;;;8.70;3.20;;;18.40;1.00;;;;;;5053282;28;20393;-75
2023/09/04 06:09:42;;;;;;;7.88;3.10;;;20.00;1.00;;;;;;5053703;28;20981;-75
2023/09/04 06:12:11;;;;;;;8.15;3.40;;;22.00;42.10;;;;;;5052340;28;20486;-75
2023/09/04 06:14:39;;;;;;;9.10;3.80;;;23.60;56.40;;;;;;5037742;28;21272;-75
2023/09/04 06:17:04;;;;;;;10.30;3.00;;;25.00;1.00;;;;;;5030886;28;20478;-75
2023/09/04 06:19:30;;;;;;;7.28;2.97;;;26.40;1.00;;;;;;5013244;28;20502;-75
2023/09/04 06:21:56;;;;;;;8.25;2.90;;;27.30;1.00;;;;;;5032855;28;20487;-75
2023/09/04 06:24:22;;;;;;;7.55;2.80;;;28.20;99.90;;;;;;5050406;28;20394;-76
2023/09/04 06:26:47;;;;;;;7.73;3.10;;;28.50;99.90;;;;;;5050269;28;20439;-76
2023/09/04 06:29:16;;;;;;;7.20;2.38;;;28.90;99.90;;;;;;5050219;28;20408;-76
2023/09/04 06:31:41;;;;;;;8.02;2.97;;;29.00;99.90;;;;;;5050336;28;20389;-76
2023/09/04 06:34:07;;;;;;;7.30;2.57;;;29.20;99.90;;;;;;5032259;28;20455;-75
2023/09/04 06:36:32;;;;;;;7.30;2.90;;;29.60;99.90;;;;;;5034522;28;20905;-76
2023/09/04 06:38:58;;;;;;;7.07;2.70;;;29.90;99.90;;;;;;5030733;28;20436;-76
2023/09/04 06:41:24;;;;;;;6.85;2.50;;;30.10;99.90;;;;;;5030287;28;20391;-76
2023/09/04 06:43:49;;;;;;;7.30;2.50;;;30.10;99.90;;;;;;5030099;28;20426;-76
2023/09/04 06:46:15;;;;;;;6.40;2.40;;;30.30;99.90;;;;;;5029884;28;20411;-76
2023/09/04 06:48:40;;;;;;;6.50;2.45;;;30.90;99.90;;;;;;5030106;28;20382;-76
2023/09/04 06:51:06;;;;;;;6.50;2.50;;;30.90;99.90;;;;;;5029823;28;20457;-76
2023/09/04 06:53:31;;;;;;;8.90;2.67;;;30.60;99.90;;;;;;5030361;28;20410;-76
2023/09/04 06:55:57;;;;;;;7.65;2.70;;;30.50;99.90;;;;;;5030193;28;20387;-76
2023/09/04 06:58:24;;;;;;;9.55;2.80;;;29.90;99.90;;;;;;5029604;28;20834;-76
2023/09/04 07:00:52;;;;;;;8.02;2.88;;;30.50;99.90;;;;;;5029632;28;20391;-76
2023/09/04 07:03:17;;;;;;;7.60;2.72;;;31.20;99.90;;;;;;5025939;28;20827;-76
2023/09/04 07:05:43;;;;;;;6.30;2.40;;;31.20;99.90;;;;;;5010126;28;20460;-76
2023/09/04 07:08:08;;;;;;;7.97;2.50;;;31.30;99.90;;;;;;5009752;28;20392;-76
2023/09/04 07:10:35;;;;;;;9.60;2.60;;;31.00;99.90;;;;;;5009807;28;20381;-76
2023/09/04 07:13:01;;;;;;;8.05;2.60;;;31.10;99.90;;;;;;5011195;28;20432;-76
2023/09/04 07:15:27;;;;;;;8.93;2.90;;;31.00;99.90;;;;;;4992406;28;20414;-76
2023/09/04 07:17:52;;;;;;;7.00;3.00;;;31.20;99.90;;;;;;5012064;28;20399;-75
2023/09/04 07:20:18;;;;;;;6.80;2.40;;;31.40;99.90;;;;;;5029512;28;20511;-76
2023/09/04 07:22:44;;;;;;;8.30;2.72;;;31.90;99.90;;;;;;5028906;28;20391;-76
2023/09/04 07:25:10;;;;;;;6.80;3.00;;;32.20;99.90;;;;;;5028923;28;20431;-76
2023/09/04 07:27:36;;;;;;;7.13;2.40;;;32.00;99.90;;;;;;5029260;28;20742;-76
2023/09/04 07:30:03;;;;;;;6.97;2.67;;;32.50;99.90;;;;;;5029215;28;20396;-76
2023/09/04 07:32:29;;;;;;;7.40;2.45;;;33.00;99.90;;;;;;5028030;28;20882;-76
2023/09/04 07:34:57;;;;;;;8.23;2.50;;;33.10;99.90;;;;;;5029146;28;20399;-76
2023/09/04 07:37:25;;;;;;;8.20;3.10;;;33.20;99.90;;;;;;5029051;28;20818;-76
2023/09/04 07:39:51;;;;;;;6.50;2.30;;;33.50;99.90;;;;;;5029469;28;20753;-76
2023/09/04 07:42:17;;;;;;;7.55;2.65;;;33.40;99.90;;;;;;5029154;28;20406;-76
2023/09/04 07:44:43;;;;;;;8.00;2.53;;;33.40;99.90;;;;;;5010847;28;20925;-76
2023/09/04 07:47:08;;;;;;;7.03;3.10;;;33.10;99.90;;;;;;5029059;28;20715;-76
2023/09/04 07:49:34;;;;;;;8.20;2.85;;;33.10;99.90;;;;;;5028793;28;20390;-76
2023/09/04 07:51:59;;;;;;;8.67;2.60;;;32.60;99.90;;;;;;5028927;28;20406;-76
2023/09/04 07:54:25;;;;;;;8.63;2.70;;;32.50;99.90;;;;;;5028469;28;20398;-75
2023/09/04 07:56:50;;;;;;;7.60;2.90;;;32.70;99.90;;;;;;5010937;28;20406;-76
2023/09/04 07:59:16;;;;;;;6.50;2.60;;;32.90;99.90;;;;;;5027345;28;20379;-76
2023/09/04 08:01:42;;;;;;;7.10;2.60;;;32.60;99.90;;;;;;5009333;28;20399;-76
2023/09/04 08:04:07;;;;;;;9.10;2.67;;;33.20;99.90;;;;;;5022816;28;20395;-76
2023/09/04 08:06:33;;;;;;;8.93;3.00;;;33.00;99.90;;;;;;5028187;28;20777;-76
2023/09/04 08:08:58;;;;;;;8.17;2.70;;;33.10;99.90;;;;;;5028588;28;20423;-76
2023/09/04 08:11:24;;;;;;;7.10;2.25;;;33.30;99.90;;;;;;5018990;28;20937;-76
2023/09/04 08:13:49;;;;;;;6.70;2.90;;;33.40;99.90;;;;;;5028482;28;20470;-76
2023/09/04 08:16:15;;;;;;;8.10;3.00;;;34.00;99.90;;;;;;5028894;28;20910;-76
2023/09/04 08:18:40;;;;;;;6.53;2.60;;;33.80;99.90;;;;;;5028178;28;20403;-76
2023/09/04 08:21:06;;;;;;;6.70;2.70;;;33.90;99.90;;;;;;5028165;28;20396;-76
2023/09/04 08:23:33;;;;;;;7.67;2.87;;;34.30;99.90;;;;;;5013616;28;20403;-76
2023/09/04 08:25:59;;;;;;;7.50;2.60;;;;;;;;;;5004389;28;20427;-76
2023/09/04 08:28:25;;;;;;;7.10;2.90;;;34.60;99.90;;;;;;5023304;28;20383;-77
2023/09/04 08:30:51;;;;;;;7.38;3.00;;;34.90;99.90;;;;;;5033048;28;20441;-77
2023/09/04 08:33:16;;;;;;;7.73;2.60;;;34.90;99.90;;;;;;5033038;28;20955;-77
2023/09/04 08:35:42;;;;;;;7.20;2.20;;;34.40;99.90;;;;;;5032491;28;20473;-77
2023/09/04 08:38:08;;;;;;;7.60;2.67;;;34.90;99.90;;;;;;5014870;28;20565;-77
2023/09/04 08:41:00;;;;;;;8.37;2.80;;;34.70;99.90;;;;;;5032792;28;20379;-77
2023/09/04 08:43:31;;;;;;;6.93;2.75;;;33.70;99.90;;;;;;5033100;28;20462;-78
2023/09/04 08:46:00;;;;;;;7.10;2.50;;;33.50;99.90;;;;;;5032654;28;20885;-77
2023/09/04 08:48:29;;;;;;;6.40;2.50;;;34.00;99.90;;;;;;5032468;28;20394;-77
2023/09/04 08:50:56;;;;;;;7.30;2.40;;;34.00;99.90;;;;;;5015012;28;20398;-77
2023/09/04 08:53:22;;;;;;;6.60;2.50;;;32.80;99.90;;;;;;5014706;28;20405;-77
2023/09/04 08:55:48;;;;;;;6.60;2.60;;;32.50;99.90;;;;;;5032194;28;20395;-77
2023/09/04 08:58:15;;;;;;;7.10;2.70;;;33.40;99.90;;;;;;5014124;28;20418;-77
2023/09/04 09:00:42;;;;;;;8.93;2.90;;;34.00;99.90;;;;;;5031960;28;20477;-77
2023/09/04 09:03:07;;;;;;;6.60;2.30;;;33.50;99.90;;;;;;5031960;28;20837;-77
2023/09/04 09:05:34;;;;;;;6.77;2.70;;;33.80;99.90;;;;;;5033633;28;20502;-76
2023/09/04 09:08:01;;;;;;;5.97;2.22;;;34.40;99.90;;;;;;5032559;28;20383;-76
2023/09/04 09:10:27;;;;;;;6.80;2.60;;;34.90;99.90;;;;;;5031659;28;20403;-76
2023/09/04 09:12:53;;;;;;;6.80;2.50;;;34.60;99.90;;;;;;5032918;28;20419;-78
2023/09/04 09:15:19;;;;;;;7.03;2.40;;;33.80;99.90;;;;;;5032310;28;20386;-78
2023/09/04 09:17:56;;;;;;;6.23;2.20;;;33.10;99.90;;;;;;5012284;28;20415;-75
2023/09/04 09:20:35;;;;;;;6.50;2.60;;;31.90;99.90;;;;;;5032043;28;20793;-75
2023/09/04 09:23:04;;;;;;;7.53;2.80;;;31.70;99.90;;;;;;5019253;28;20462;-75
2023/09/04 09:25:30;;;;;;;6.40;2.40;;;32.20;99.90;;;;;;5013057;28;20779;-76
2023/09/04 09:28:07;;;;;;;6.07;2.40;;;33.30;99.90;;;;;;5013750;28;20435;-78
2023/09/04 09:30:34;;;;;;;7.20;2.63;;;;;;;;;;5021918;28;20465;-78
2023/09/04 09:33:02;;;;;;;6.55;2.60;;;33.80;99.90;;;;;;4999924;28;20420;-78
2023/09/04 09:35:31;;;;;;;7.03;2.50;;;33.60;99.90;;;;;;5019547;28;20413;-78
2023/09/04 09:38:03;;;;;;;6.22;2.60;;;33.70;99.90;;;;;;5031049;28;20402;-78
2023/09/04 09:40:29;;;;;;;6.83;2.30;;;34.10;99.90;;;;;;5031090;28;20478;-78
2023/09/04 09:42:55;;;;;;;6.60;2.37;;;33.40;99.90;;;;;;5033701;28;20395;-78
2023/09/04 09:45:20;;;;;;;8.00;2.50;;;33.40;99.90;;;;;;5016144;28;20919;-76
2023/09/04 09:47:49;;;;;;;7.00;2.72;;;32.80;99.90;;;;;;5012041;28;20389;-75
2023/09/04 09:50:15;;;;;;;6.53;2.15;;;32.50;99.90;;;;;;5027207;28;20414;-76
2023/09/04 09:52:57;;;;;;;7.20;2.88;;;33.10;99.90;;;;;;5027922;28;20406;-78
2023/09/04 09:55:33;;;;;;;7.57;2.50;;;33.10;99.90;;;;;;5031555;28;20474;-78
2023/09/04 09:57:59;;;;;;;6.72;2.58;;;34.30;99.90;;;;;;5032032;28;20567;-76
2023/09/04 10:00:25;;;;;;;7.00;2.40;;;34.60;1.00;;;;;;5032243;28;20898;-78
2023/09/04 10:02:51;;;;;;;7.20;2.30;;;34.10;99.90;;;;;;5031367;28;20900;-78
2023/09/04 10:05:19;;;;;;;6.70;2.47;;;34.00;1.00;;;;;;5031290;28;20415;-78
2023/09/04 10:07:47;;;;;;;5.93;2.10;;;;;;;;;;5029629;28;20568;-78
2023/09/04 10:10:14;;;;;;;7.60;3.00;;;34.70;99.90;;;;;;5031167;28;20383;-76
2023/09/04 10:12:51;;;;;;;6.65;2.35;;;35.30;99.90;;;;;;5012043;28;20419;-76
2023/09/04 10:15:27;;;;;;;6.10;2.10;;;36.00;1.00;;;;;;5028689;28;20414;-76
2023/09/04 10:18:03;;;;;;;8.60;2.30;;;36.20;99.90;;;;;;5011530;28;20423;-76
2023/09/04 10:20:29;;;;;;;6.68;2.38;;;36.00;99.90;;;;;;5027399;28;20436;-76
2023/09/04 10:23:06;;;;;;;6.47;2.40;;;36.00;99.90;;;;;;5029974;28;20589;-76
2023/09/04 10:25:51;;;;;;;7.18;2.22;;;36.20;99.90;;;;;;5015166;28;20463;-76
2023/09/04 10:28:47;;;;;;;6.72;2.30;;;35.50;99.90;;;;;;5028702;28;20403;-76
2023/09/04 10:31:14;;;;;;;6.57;2.17;;;;;;;;;;5030220;28;20411;-78
2023/09/04 10:33:39;;;;;;;8.63;3.10;;;33.90;1.00;;;;;;5030547;28;20379;-78
2023/09/04 10:36:05;;;;;;;6.75;2.45;;;33.00;1.00;;;;;;5030133;28;20877;-78
2023/09/04 10:38:32;;;;;;;6.13;2.20;;;32.60;1.00;;;;;;5022435;28;20423;-75
2023/09/04 10:40:58;;;;;;;8.48;2.40;;;32.20;1.00;;;;;;5029870;28;20929;-76
2023/09/04 10:43:41;;;;;;;6.07;1.98;;;32.30;1.00;;;;;;5030467;28;20533;-76
2023/09/04 10:46:16;;;;;;;7.40;2.50;;;32.30;1.00;;;;;;5007506;28;20471;-76
2023/09/04 10:48:44;;;;;;;6.50;2.00;;;32.00;1.00;;;;;;5027614;28;20399;-75
2023/09/04 10:51:34;;;;;;;7.22;2.45;;;31.80;1.00;;;;;;5029402;28;20414;-76
2023/09/04 10:54:22;;;;;;;7.70;2.60;;;31.80;1.00;;;;;;5030839;28;20485;-75
2023/09/04 10:57:05;;;;;;;7.63;2.83;;;31.10;99.90;;;;;;5013372;28;20388;-75
2023/09/04 10:59:54;;;;;;;7.55;2.50;;;30.80;99.90;;;;;;5029539;28;20435;-76
2023/09/04 11:02:33;;;;;;;6.70;2.60;;;30.90;99.90;;;;;;5010197;28;20442;-75
2023/09/04 11:05:01;;;;;;;6.32;2.63;;;31.20;99.90;;;;;;5030186;28;20411;-75
2023/09/04 11:07:28;;;;;;;7.20;2.53;;;31.40;99.90;;;;;;5025823;28;20810;-75
2023/09/04 11:10:11;;;;;;;6.50;2.20;;;31.70;99.90;;;;;;5029616;28;20491;-76
2023/09/04 11:12:37;;;;;;;7.70;2.60;;;32.20;99.90;;;;;;5013326;28;20487;-75
2023/09/04 11:15:16;;;;;;;8.13;2.20;;;32.80;99.90;;;;;;5009948;28;20385;-76
2023/09/04 11:17:45;;;;;;;6.50;1.80;;;32.70;99.90;;;;;;5015928;28;20453;-76
2023/09/04 11:20:14;;;;;;;7.53;2.40;;;31.80;99.90;;;;;;5020968;28;20406;-76
2023/09/04 11:22:47;;;;;;;7.05;2.90;;;31.10;99.90;;;;;;5011111;28;20411;-76
2023/09/04 11:25:12;;;;;;;7.67;2.70;;;30.90;99.90;;;;;;5029174;28;20415;-76
2023/09/04 11:27:39;;;;;;;6.40;2.40;;;30.20;99.90;;;;;;5026261;28;20421;-76
2023/09/04 11:30:05;;;;;;;7.18;2.50;;;30.00;99.90;;;;;;5029000;28;20427;-76
2023/09/04 11:32:36;;;;;;;6.28;2.20;;;29.80;99.90;;;;;;5029757;28;20387;-76
2023/09/04 11:35:02;;;;;;;7.13;2.53;;;30.10;99.90;;;;;;5029464;28;20391;-76
2023/09/04 11:37:32;;;;;;;6.70;2.50;;;30.40;99.90;;;;;;5029434;28;20737;-76
2023/09/04 11:39:59;;;;;;;9.10;2.53;;;30.30;99.90;;;;;;5014356;28;20392;-76
2023/09/04 11:42:27;;;;;;;6.80;2.20;;;30.00;99.90;;;;;;4995554;28;20425;-76
2023/09/04 11:44:53;;;;;;;7.93;2.67;;;30.00;99.90;;;;;;5002218;28;20430;-76
2023/09/04 11:47:19;;;;;;;7.60;2.60;;;30.00;99.90;;;;;;5029016;28;20395;-77
2023/09/04 11:49:46;;;;;;;6.50;2.30;;;29.60;99.90;;;;;;5029506;28;20399;-78
2023/09/04 11:52:12;;;;;;;6.40;2.55;;;29.50;99.90;;;;;;5009107;28;20971;-76
2023/09/04 11:54:41;;;;;;;6.25;2.22;;;29.80;99.90;;;;;;5010347;28;20397;-76
2023/09/04 11:57:09;;;;;;;7.40;2.40;;;29.90;99.90;;;;;;5028345;28;20391;-76
2023/09/04 11:59:39;;;;;;;6.82;2.63;;;29.80;99.90;;;;;;5028134;28;20414;-76
2023/09/04 12:02:07;;;;;;;6.80;2.25;;;29.90;99.90;;;;;;5028750;28;20934;-76
2023/09/04 12:04:33;;;;;;;6.47;2.30;;;30.00;99.90;;;;;;5011286;28;20395;-76
2023/09/04 12:07:00;;;;;;;7.10;2.22;;;30.20;99.90;;;;;;5027892;28;20418;-76
2023/09/04 12:09:26;;;;;;;6.70;2.10;;;30.20;99.90;;;;;;5028416;28;20743;-76
2023/09/04 12:11:53;;;;;;;6.30;2.30;;;30.20;99.90;;;;;;5010417;28;20414;-76
2023/09/04 12:14:19;;;;;;;6.05;2.25;;;30.30;99.90;;;;;;5027217;28;20460;-76
2023/09/04 12:16:45;;;;;;;6.73;2.20;;;30.40;99.90;;;;;;5008561;28;20419;-76
2023/09/04 12:19:11;;;;;;;6.60;2.50;;;30.30;99.90;;;;;;5026749;28;20441;-76
2023/09/04 12:21:37;;;;;;;7.40;2.45;;;30.40;99.90;;;;;;5027577;28;20470;-76
2023/09/04 12:24:12;;;;;;;6.10;2.10;;;30.50;99.90;;;;;;5026536;28;20962;-76
2023/09/04 12:26:38;;;;;;;6.75;2.28;;;30.40;99.90;;;;;;5008445;28;20455;-76
2023/09/04 12:29:03;;;;;;;7.47;2.40;;;30.20;99.90;;;;;;5026502;28;20442;-76
2023/09/04 12:31:30;;;;;;;6.43;2.00;;;30.10;99.90;;;;;;5027743;28;20402;-76
2023/09/04 12:33:55;;;;;;;6.80;2.40;;;30.30;99.90;;;;;;5009352;28;20394;-76
2023/09/04 12:36:21;;;;;;;6.05;2.10;;;30.40;99.90;;;;;;5025607;28;20493;-75
2023/09/04 12:38:47;;;;;;;6.22;2.08;;;30.40;99.90;;;;;;5007951;28;20916;-76
2023/09/04 12:41:13;;;;;;;7.70;2.40;;;30.20;99.90;;;;;;5004222;28;20921;-75
2023/09/04 12:43:41;;;;;;;6.20;1.93;;;30.00;99.90;;;;;;5017964;28;20897;-76
2023/09/04 12:46:07;;;;;;;6.70;1.90;;;29.80;99.90;;;;;;5006335;28;20476;-76
2023/09/04 12:48:34;;;;;;;7.38;2.40;;;29.90;99.90;;;;;;5026892;28;20387;-77
2023/09/04 12:50:59;;;;;;;6.10;2.10;;;29.80;99.90;;;;;;5025990;28;20416;-77